createdAt,value
2023-02-22T00:00:50.161Z,8.15
2023-02-22T00:01:50.061Z,8.13
2023-02-22T00:02:50.010Z,8.13
2023-02-22T00:03:50.029Z,8.10
2023-02-22T00:04:49.978Z,8.12
2023-02-22T00:05:49.962Z,8.13
2023-02-22T00:06:50.015Z,8.12
2023-02-22T00:07:49.952Z,8.10
2023-02-22T00:08:49.936Z,8.10
2023-02-22T00:09:49.926Z,8.10
2023-02-22T00:10:49.895Z,8.09
2023-02-22T00:11:49.904Z,8.09
2023-02-22T00:12:49.912Z,8.08
2023-02-22T00:13:49.894Z,8.06
2023-02-22T00:14:49.861Z,8.09
2023-02-22T00:15:49.889Z,8.08
2023-02-22T00:16:49.834Z,8.08
2023-02-22T00:17:49.865Z,8.06
2023-02-22T00:18:49.852Z,8.08
2023-02-22T00:19:49.818Z,8.06
2023-02-22T00:20:49.797Z,8.09
2023-02-22T00:21:49.809Z,8.06
2023-02-22T00:22:49.794Z,8.06
2023-02-22T00:23:49.782Z,8.05
2023-02-22T00:24:49.748Z,8.03
2023-02-22T00:25:49.771Z,8.03
2023-02-22T00:26:49.762Z,8.00
2023-02-22T00:27:49.749Z,8.01
2023-02-22T00:28:49.734Z,8.00
2023-02-22T00:29:49.689Z,7.98
2023-02-22T00:30:49.708Z,7.98
2023-02-22T00:31:49.791Z,7.98
2023-02-22T00:32:49.687Z,7.97
2023-02-22T00:33:49.672Z,7.94
2023-02-22T00:34:49.655Z,7.91
2023-02-22T00:35:49.657Z,7.91
2023-02-22T00:36:49.709Z,7.91
2023-02-22T00:37:49.638Z,7.90
2023-02-22T00:38:49.622Z,7.88
2023-02-22T00:39:49.613Z,7.88
2023-02-22T00:40:49.578Z,7.87
2023-02-22T00:41:49.621Z,7.88
2023-02-22T00:42:49.558Z,7.87
2023-02-22T00:43:49.598Z,7.87
2023-02-22T00:44:49.539Z,7.87
2023-02-22T00:45:49.574Z,7.83
2023-02-22T00:46:49.511Z,7.82
2023-02-22T00:47:49.576Z,7.77
2023-02-22T00:48:49.507Z,7.77
2023-02-22T00:49:49.513Z,7.75
2023-02-22T00:50:49.471Z,7.73
2023-02-22T00:51:49.539Z,7.69
2023-02-22T00:52:49.476Z,7.66
2023-02-22T00:53:49.483Z,7.61
2023-02-22T00:54:49.444Z,7.58
2023-02-22T00:55:49.440Z,7.57
2023-02-22T00:56:49.417Z,7.54
2023-02-22T00:57:49.421Z,7.50
2023-02-22T00:58:49.453Z,7.47
2023-02-22T00:59:49.432Z,7.45
2023-02-22T01:00:49.445Z,7.42
2023-02-22T01:01:49.387Z,7.38
2023-02-22T01:02:49.341Z,7.36
2023-02-22T01:03:49.365Z,7.36
2023-02-22T01:04:49.340Z,7.32
2023-02-22T01:05:49.329Z,7.31
2023-02-22T01:06:49.326Z,7.28
2023-02-22T01:07:49.328Z,7.25
2023-02-22T01:08:49.349Z,7.23
2023-02-22T01:09:49.289Z,7.18
2023-02-22T01:10:49.275Z,7.17
2023-02-22T01:11:49.264Z,7.13
2023-02-22T01:12:49.263Z,7.10
2023-02-22T01:13:49.277Z,7.03
2023-02-22T01:14:49.229Z,7.00
2023-02-22T01:15:49.246Z,6.96
2023-02-22T01:16:49.269Z,6.92
2023-02-22T01:17:49.210Z,6.87
2023-02-22T01:18:49.198Z,6.85
2023-02-22T01:19:49.179Z,6.82
2023-02-22T01:20:49.187Z,6.79
2023-02-22T01:21:49.186Z,6.78
2023-02-22T01:22:49.171Z,6.75
2023-02-22T01:23:49.143Z,6.69
2023-02-22T01:24:49.146Z,6.64
2023-02-22T01:25:49.117Z,6.60
2023-02-22T01:26:49.154Z,6.57
2023-02-22T01:27:49.083Z,6.54
2023-02-22T01:28:49.104Z,6.52
2023-02-22T01:29:49.105Z,6.49
2023-02-22T01:30:49.204Z,6.45
2023-02-22T01:31:49.068Z,6.41
2023-02-22T01:32:49.066Z,6.39
2023-02-22T01:33:49.103Z,6.33
2023-02-22T01:34:49.007Z,6.30
2023-02-22T01:35:49.061Z,6.26
2023-02-22T01:36:49.013Z,6.20
2023-02-22T01:37:48.990Z,6.16
2023-02-22T01:38:48.995Z,6.09
2023-02-22T01:39:49.031Z,6.02
2023-02-22T01:40:49.002Z,5.94
2023-02-22T01:41:48.994Z,5.87
2023-02-22T01:42:48.953Z,5.80
2023-02-22T01:43:48.937Z,5.73
2023-02-22T01:44:48.936Z,5.66
2023-02-22T01:45:49.032Z,5.61
2023-02-22T01:46:48.901Z,5.57
2023-02-22T01:47:48.880Z,5.53
2023-02-22T01:48:48.877Z,5.50
2023-02-22T01:49:48.931Z,5.46
2023-02-22T01:50:48.956Z,5.46
2023-02-22T01:51:48.850Z,5.43
2023-02-22T01:52:48.837Z,5.41
2023-02-22T01:53:48.820Z,5.38
2023-02-22T01:54:48.855Z,5.35
2023-02-22T01:55:48.827Z,5.29
2023-02-22T01:56:48.780Z,5.26
2023-02-22T01:57:48.799Z,5.23
2023-02-22T01:58:48.760Z,5.17
2023-02-22T01:59:48.784Z,5.12
2023-02-22T02:00:48.810Z,5.07
2023-02-22T02:02:07.455Z,5.02
2023-02-22T02:02:49.067Z,4.99
2023-02-22T02:03:49.096Z,4.96
2023-02-22T02:04:48.955Z,4.92
2023-02-22T02:05:48.834Z,4.87
2023-02-22T02:06:48.825Z,4.84
2023-02-22T02:07:48.712Z,4.80
2023-02-22T02:08:48.742Z,4.75
2023-02-22T02:09:48.699Z,4.74
2023-02-22T02:10:48.721Z,4.73
2023-02-22T02:11:48.687Z,4.74
2023-02-22T02:12:48.844Z,4.74
2023-02-22T02:13:48.655Z,4.80
2023-02-22T02:14:48.731Z,4.78
2023-02-22T02:15:48.680Z,4.80
2023-02-22T02:16:48.760Z,4.78
2023-02-22T02:17:48.633Z,4.74
2023-02-22T02:18:48.680Z,4.73
2023-02-22T02:19:48.665Z,4.74
2023-02-22T02:20:48.651Z,4.78
2023-02-22T02:21:48.634Z,4.82
2023-02-22T02:22:48.705Z,4.82
2023-02-22T02:23:48.558Z,4.86
2023-02-22T02:24:48.615Z,4.86
2023-02-22T02:25:48.602Z,4.86
2023-02-22T02:26:48.666Z,4.90
2023-02-22T02:27:48.548Z,4.92
2023-02-22T02:28:48.531Z,4.90
2023-02-22T02:29:48.522Z,4.90
2023-02-22T02:30:48.529Z,4.93
2023-02-22T02:31:48.683Z,4.96
2023-02-22T02:32:48.540Z,4.99
2023-02-22T02:33:48.532Z,4.99
2023-02-22T02:34:48.521Z,5.00
2023-02-22T02:35:48.548Z,5.04
2023-02-22T02:36:48.432Z,5.05
2023-02-22T02:37:48.461Z,5.05
2023-02-22T02:38:48.479Z,5.07
2023-02-22T02:39:48.453Z,5.08
2023-02-22T02:40:48.461Z,5.10
2023-02-22T02:41:48.459Z,5.14
2023-02-22T02:42:48.446Z,5.14
2023-02-22T02:43:48.394Z,5.15
2023-02-22T02:44:48.401Z,5.20
2023-02-22T02:45:48.426Z,5.25
2023-02-22T02:46:48.409Z,5.28
2023-02-22T02:47:48.372Z,5.32
2023-02-22T02:48:48.329Z,5.35
2023-02-22T02:49:48.408Z,5.38
2023-02-22T02:50:48.295Z,5.44
2023-02-22T02:51:48.294Z,5.43
2023-02-22T02:52:48.300Z,5.47
2023-02-22T02:53:48.302Z,5.48
2023-02-22T02:54:48.312Z,5.51
2023-02-22T02:55:48.308Z,5.53
2023-02-22T02:56:48.386Z,5.54
2023-02-22T02:57:48.214Z,5.59
2023-02-22T02:58:48.247Z,5.61
2023-02-22T02:59:48.231Z,5.61
2023-02-22T03:00:48.253Z,5.64
2023-02-22T03:01:48.206Z,5.66
2023-02-22T03:02:48.243Z,5.68
2023-02-22T03:03:48.202Z,5.71
2023-02-22T03:04:48.232Z,5.72
2023-02-22T03:05:48.267Z,5.75
2023-02-22T03:06:48.163Z,5.86
2023-02-22T03:07:48.202Z,5.94
2023-02-22T03:08:48.209Z,6.07
2023-02-22T03:09:48.226Z,6.17
2023-02-22T03:10:48.160Z,6.22
2023-02-22T03:11:48.149Z,6.28
2023-02-22T03:12:48.172Z,6.33
2023-02-22T03:13:48.091Z,6.35
2023-02-22T03:14:48.061Z,6.39
2023-02-22T03:15:48.043Z,6.41
2023-02-22T03:16:48.049Z,6.41
2023-02-22T03:17:47.994Z,6.41
2023-02-22T03:18:48.142Z,6.42
2023-02-22T03:19:48.029Z,6.45
2023-02-22T03:20:48.019Z,6.45
2023-02-22T03:21:48.047Z,6.45
2023-02-22T03:22:48.063Z,6.44
2023-02-22T03:23:48.042Z,6.42
2023-02-22T03:24:47.996Z,6.44
2023-02-22T03:25:47.967Z,6.45
2023-02-22T03:26:47.930Z,6.45
2023-02-22T03:27:47.974Z,6.45
2023-02-22T03:28:48.086Z,6.46
2023-02-22T03:29:47.979Z,6.45
2023-02-22T03:30:47.993Z,6.45
2023-02-22T03:31:47.986Z,6.44
2023-02-22T03:32:48.038Z,6.42
2023-02-22T03:33:47.848Z,6.45
2023-02-22T03:34:47.868Z,6.45
2023-02-22T03:35:47.825Z,6.45
2023-02-22T03:36:47.785Z,6.45
2023-02-22T03:37:47.831Z,6.42
2023-02-22T03:38:47.802Z,6.42
2023-02-22T03:39:47.764Z,6.38
2023-02-22T03:40:47.785Z,6.38
2023-02-22T03:41:47.759Z,6.38
2023-02-22T03:42:47.740Z,6.36
2023-02-22T03:43:47.964Z,6.35
2023-02-22T03:44:47.752Z,6.33
2023-02-22T03:45:47.835Z,6.33
2023-02-22T03:46:47.753Z,6.33
2023-02-22T03:47:47.780Z,6.33
2023-02-22T03:48:47.816Z,6.35
2023-02-22T03:49:47.786Z,6.35
2023-02-22T03:50:47.775Z,6.35
2023-02-22T03:51:47.846Z,6.35
2023-02-22T03:52:47.697Z,6.33
2023-02-22T03:53:47.738Z,6.33
2023-02-22T03:54:47.745Z,6.33
2023-02-22T03:55:47.786Z,6.33
2023-02-22T03:56:47.688Z,6.30
2023-02-22T03:57:47.612Z,6.33
2023-02-22T03:58:47.703Z,6.31
2023-02-22T03:59:47.629Z,6.31
2023-02-22T04:00:47.618Z,6.31
2023-02-22T04:01:47.668Z,6.35
2023-02-22T04:02:47.569Z,6.31
2023-02-22T04:03:47.594Z,6.31
2023-02-22T04:04:47.784Z,6.33
2023-02-22T04:05:47.628Z,6.31
2023-02-22T04:06:47.520Z,6.31
2023-02-22T04:07:47.598Z,6.33
2023-02-22T04:08:47.560Z,6.31
2023-02-22T04:09:47.551Z,6.30
2023-02-22T04:10:47.511Z,6.31
2023-02-22T04:11:47.501Z,6.28
2023-02-22T04:12:47.473Z,6.30
2023-02-22T04:13:47.492Z,6.28
2023-02-22T04:14:47.574Z,6.24
2023-02-22T04:15:47.495Z,6.27
2023-02-22T04:16:47.434Z,6.26
2023-02-22T04:17:47.425Z,6.27
2023-02-22T04:18:47.440Z,6.26
2023-02-22T04:19:47.406Z,6.26
2023-02-22T04:20:47.414Z,6.28
2023-02-22T04:21:47.373Z,6.28
2023-02-22T04:22:47.515Z,6.28
2023-02-22T04:23:47.382Z,6.28
2023-02-22T04:24:47.382Z,6.28
2023-02-22T04:25:47.328Z,6.28
2023-02-22T04:26:47.385Z,6.30
2023-02-22T04:27:47.352Z,6.30
2023-02-22T04:28:47.297Z,6.30
2023-02-22T04:29:47.330Z,6.28
2023-02-22T04:30:47.355Z,6.28
2023-02-22T04:31:47.379Z,6.28
2023-02-22T04:32:47.309Z,6.30
2023-02-22T04:33:47.344Z,6.31
2023-02-22T04:34:47.279Z,6.30
2023-02-22T04:35:47.291Z,6.28
2023-02-22T04:36:47.197Z,6.28
2023-02-22T04:37:47.278Z,6.28
2023-02-22T04:38:47.232Z,6.27
2023-02-22T04:39:47.780Z,6.26
2023-02-22T04:40:47.177Z,6.20
2023-02-22T04:41:47.286Z,6.19
2023-02-22T04:42:47.179Z,6.16
2023-02-22T04:43:47.202Z,6.16
2023-02-22T04:44:47.204Z,6.12
2023-02-22T04:45:47.224Z,6.11
2023-02-22T04:46:47.162Z,6.12
2023-02-22T04:47:47.102Z,6.12
2023-02-22T04:48:47.130Z,6.12
2023-02-22T04:49:47.123Z,6.12
2023-02-22T04:50:47.155Z,6.14
2023-02-22T04:51:47.122Z,6.12
2023-02-22T04:52:47.150Z,6.12
2023-02-22T04:53:47.201Z,6.11
2023-02-22T04:54:47.069Z,6.09
2023-02-22T04:55:47.073Z,6.11
2023-02-22T04:56:47.022Z,6.11
2023-02-22T04:57:47.072Z,6.09
2023-02-22T04:58:47.047Z,6.08
2023-02-22T04:59:47.010Z,6.07
2023-02-22T05:00:46.998Z,6.05
2023-02-22T05:01:47.147Z,6.01
2023-02-22T05:02:47.099Z,6.01
2023-02-22T05:03:47.123Z,6.02
2023-02-22T05:04:47.050Z,6.02
2023-02-22T05:05:46.972Z,6.02
2023-02-22T05:06:46.997Z,6.04
2023-02-22T05:07:46.963Z,6.02
2023-02-22T05:08:46.941Z,6.04
2023-02-22T05:09:46.903Z,6.04
2023-02-22T05:10:46.950Z,6.02
2023-02-22T05:11:46.928Z,6.02
2023-02-22T05:12:46.947Z,6.02
2023-02-22T05:13:46.959Z,6.01
2023-02-22T05:14:46.999Z,5.94
2023-02-22T05:15:46.952Z,5.93
2023-02-22T05:16:46.852Z,5.90
2023-02-22T05:17:46.871Z,5.91
2023-02-22T05:18:46.828Z,5.90
2023-02-22T05:19:46.821Z,5.87
2023-02-22T05:20:46.793Z,5.84
2023-02-22T05:21:46.857Z,5.86
2023-02-22T05:22:46.819Z,5.84
2023-02-22T05:23:46.842Z,5.83
2023-02-22T05:24:46.760Z,5.82
2023-02-22T05:25:46.770Z,5.84
2023-02-22T05:26:46.842Z,5.83
2023-02-22T05:27:46.836Z,5.82
2023-02-22T05:28:46.873Z,5.80
2023-02-22T05:29:46.751Z,5.82
2023-02-22T05:30:46.965Z,5.80
2023-02-22T05:31:46.830Z,5.79
2023-02-22T05:32:47.165Z,5.79
2023-02-22T05:33:46.717Z,5.79
2023-02-22T05:34:46.882Z,5.75
2023-02-22T05:35:46.658Z,5.73
2023-02-22T05:36:46.665Z,5.73
2023-02-22T05:37:46.770Z,5.73
2023-02-22T05:38:46.637Z,5.69
2023-02-22T05:39:46.632Z,5.69
2023-02-22T05:40:46.692Z,5.71
2023-02-22T05:41:46.577Z,5.68
2023-02-22T05:42:48.890Z,5.68
2023-02-22T05:43:46.614Z,5.69
2023-02-22T05:44:46.661Z,5.71
2023-02-22T05:45:46.558Z,5.71
2023-02-22T05:46:46.612Z,5.71
2023-02-22T05:47:46.550Z,5.71
2023-02-22T05:48:46.514Z,5.69
2023-02-22T05:49:46.526Z,5.72
2023-02-22T05:50:46.544Z,5.73
2023-02-22T05:51:46.501Z,5.73
2023-02-22T05:52:46.496Z,5.73
2023-02-22T05:53:46.519Z,5.71
2023-02-22T05:54:46.508Z,5.72
2023-02-22T05:55:46.685Z,5.72
2023-02-22T05:56:46.492Z,5.71
2023-02-22T05:57:46.488Z,5.71
2023-02-22T05:58:46.416Z,5.71
2023-02-22T05:59:46.409Z,5.72
2023-02-22T06:00:46.505Z,5.71
2023-02-22T06:01:46.456Z,5.72
2023-02-22T06:02:46.406Z,5.72
2023-02-22T06:03:46.355Z,5.72
2023-02-22T06:04:46.404Z,5.73
2023-02-22T06:05:46.381Z,5.73
2023-02-22T06:06:46.274Z,5.75
2023-02-22T06:07:46.388Z,5.75
2023-02-22T06:08:46.365Z,5.76
2023-02-22T06:09:46.436Z,5.79
2023-02-22T06:10:46.284Z,5.80
2023-02-22T06:11:46.327Z,5.82
2023-02-22T06:12:46.340Z,5.84
2023-02-22T06:13:46.255Z,5.83
2023-02-22T06:14:46.233Z,5.82
2023-02-22T06:15:46.241Z,5.80
2023-02-22T06:16:46.241Z,5.80
2023-02-22T06:17:46.217Z,5.79
2023-02-22T06:18:46.159Z,5.79
2023-02-22T06:19:46.188Z,5.80
2023-02-22T06:20:46.281Z,5.79
2023-02-22T06:21:46.151Z,5.79
2023-02-22T06:22:46.147Z,5.79
2023-02-22T06:23:46.124Z,5.76
2023-02-22T06:24:46.129Z,5.76
2023-02-22T06:25:46.158Z,5.76
2023-02-22T06:26:46.125Z,5.76
2023-02-22T06:27:46.091Z,5.76
2023-02-22T06:28:46.080Z,5.79
2023-02-22T06:29:46.045Z,5.79
2023-02-22T06:30:46.083Z,5.79
2023-02-22T06:31:46.116Z,5.79
2023-02-22T06:32:46.005Z,5.82
2023-02-22T06:33:46.003Z,5.83
2023-02-22T06:34:45.998Z,5.82
2023-02-22T06:35:45.992Z,5.83
2023-02-22T06:36:46.061Z,5.86
2023-02-22T06:37:45.987Z,5.86
2023-02-22T06:38:46.005Z,5.86
2023-02-22T06:39:46.068Z,5.89
2023-02-22T06:40:46.055Z,5.86
2023-02-22T06:41:45.992Z,5.89
2023-02-22T06:42:45.981Z,5.87
2023-02-22T06:43:45.968Z,5.86
2023-02-22T06:44:45.964Z,5.87
2023-02-22T06:45:46.052Z,5.87
2023-02-22T06:46:45.893Z,5.87
2023-02-22T06:47:45.913Z,5.86
2023-02-22T06:48:45.924Z,5.86
2023-02-22T06:49:45.901Z,5.86
2023-02-22T06:50:45.829Z,5.89
2023-02-22T06:51:45.885Z,5.87
2023-02-22T06:52:45.888Z,5.89
2023-02-22T06:53:45.905Z,5.90
2023-02-22T06:54:45.844Z,5.89
2023-02-22T06:55:45.858Z,5.89
2023-02-22T06:56:45.831Z,5.90
2023-02-22T06:57:45.833Z,5.91
2023-02-22T06:58:45.796Z,5.91
2023-02-22T06:59:45.828Z,5.94
2023-02-22T07:00:45.816Z,5.97
2023-02-22T07:01:45.769Z,5.94
2023-02-22T07:02:45.803Z,5.98
2023-02-22T07:03:45.817Z,5.98
2023-02-22T07:04:45.841Z,5.98
2023-02-22T07:05:45.729Z,5.97
2023-02-22T07:06:45.750Z,5.94
2023-02-22T07:07:45.697Z,5.97
2023-02-22T07:08:45.774Z,5.98
2023-02-22T07:09:45.689Z,5.98
2023-02-22T07:10:45.632Z,5.98
2023-02-22T07:11:45.708Z,5.97
2023-02-22T07:12:52.623Z,5.94
2023-02-22T07:13:45.617Z,5.94
2023-02-22T07:14:45.604Z,5.93
2023-02-22T07:15:45.567Z,5.94
2023-02-22T07:16:45.684Z,5.94
2023-02-22T07:17:45.561Z,5.94
2023-02-22T07:18:45.552Z,5.97
2023-02-22T07:19:45.885Z,5.98
2023-02-22T07:20:45.507Z,5.98
2023-02-22T07:21:45.575Z,5.98
2023-02-22T07:22:45.553Z,5.98
2023-02-22T07:23:45.495Z,5.98
2023-02-22T07:24:45.479Z,6.01
2023-02-22T07:25:45.517Z,5.99
2023-02-22T07:26:45.636Z,5.99
2023-02-22T07:27:45.511Z,5.98
2023-02-22T07:28:45.509Z,5.97
2023-02-22T07:29:45.429Z,5.94
2023-02-22T07:30:45.598Z,5.93
2023-02-22T07:31:45.400Z,5.90
2023-02-22T07:32:45.488Z,5.90
2023-02-22T07:33:45.399Z,5.91
2023-02-22T07:34:45.407Z,5.93
2023-02-22T07:35:45.400Z,5.93
2023-02-22T07:36:45.388Z,5.93
2023-02-22T07:37:45.371Z,5.91
2023-02-22T07:38:45.368Z,5.94
2023-02-22T07:39:45.344Z,5.94
2023-02-22T07:40:45.367Z,5.97
2023-02-22T07:41:45.337Z,5.97
2023-02-22T07:42:45.316Z,5.97
2023-02-22T07:43:45.359Z,5.93
2023-02-22T07:44:45.550Z,5.93
2023-02-22T07:45:45.370Z,5.91
2023-02-22T07:46:45.279Z,5.91
2023-02-22T07:47:45.235Z,5.91
2023-02-22T07:48:45.254Z,5.90
2023-02-22T07:49:45.268Z,5.90
2023-02-22T07:50:45.248Z,5.91
2023-02-22T07:51:45.265Z,5.91
2023-02-22T07:52:45.230Z,5.94
2023-02-22T07:53:45.191Z,5.94
2023-02-22T07:54:45.204Z,5.99
2023-02-22T07:55:45.169Z,5.99
2023-02-22T07:56:45.158Z,5.99
2023-02-22T07:57:45.149Z,6.01
2023-02-22T07:58:45.136Z,6.02
2023-02-22T07:59:45.487Z,6.01
2023-02-22T08:00:45.298Z,6.01
2023-02-22T08:01:45.141Z,6.04
2023-02-22T08:02:45.163Z,6.01
2023-02-22T08:03:45.131Z,6.01
2023-02-22T08:04:45.116Z,6.01
2023-02-22T08:05:45.109Z,5.99
2023-02-22T08:06:45.113Z,5.94
2023-02-22T08:07:45.041Z,5.94
2023-02-22T08:08:45.033Z,5.97
2023-02-22T08:09:45.034Z,5.97
2023-02-22T08:10:45.212Z,5.94
2023-02-22T08:11:45.024Z,5.93
2023-02-22T08:12:45.035Z,5.94
2023-02-22T08:13:45.000Z,5.94
2023-02-22T08:14:44.974Z,5.93
2023-02-22T08:15:44.971Z,5.93
2023-02-22T08:16:45.058Z,5.91
2023-02-22T08:17:44.950Z,5.94
2023-02-22T08:18:45.097Z,5.97
2023-02-22T08:19:44.932Z,5.99
2023-02-22T08:20:44.933Z,5.99
2023-02-22T08:21:44.896Z,6.02
2023-02-22T08:22:44.914Z,6.08
2023-02-22T08:23:44.889Z,6.09
2023-02-22T08:24:44.886Z,6.14
2023-02-22T08:25:44.864Z,6.16
2023-02-22T08:26:44.877Z,6.17
2023-02-22T08:27:44.848Z,6.17
2023-02-22T08:28:44.849Z,6.17
2023-02-22T08:29:44.945Z,6.20
2023-02-22T08:30:45.017Z,6.20
2023-02-22T08:31:44.987Z,6.22
2023-02-22T08:32:44.981Z,6.24
2023-02-22T08:33:44.769Z,6.26
2023-02-22T08:34:44.801Z,6.27
2023-02-22T08:35:44.770Z,6.26
2023-02-22T08:36:44.769Z,6.30
2023-02-22T08:37:44.736Z,6.28
2023-02-22T08:38:44.712Z,6.31
2023-02-22T08:39:44.736Z,6.33
2023-02-22T08:40:44.770Z,6.33
2023-02-22T08:41:44.717Z,6.35
2023-02-22T08:42:44.692Z,6.35
2023-02-22T08:43:44.668Z,6.38
2023-02-22T08:44:44.680Z,6.35
2023-02-22T08:45:44.722Z,6.33
2023-02-22T08:46:44.660Z,6.28
2023-02-22T08:47:44.683Z,6.30
2023-02-22T08:48:44.624Z,6.28
2023-02-22T08:49:44.647Z,6.26
2023-02-22T08:50:44.658Z,6.27
2023-02-22T08:51:44.638Z,6.27
2023-02-22T08:52:44.589Z,6.27
2023-02-22T08:53:44.579Z,6.28
2023-02-22T08:54:44.550Z,6.27
2023-02-22T08:55:44.554Z,6.30
2023-02-22T08:56:44.533Z,6.27
2023-02-22T08:57:44.556Z,6.24
2023-02-22T08:58:44.526Z,6.24
2023-02-22T08:59:44.504Z,6.22
2023-02-22T09:00:44.496Z,6.26
2023-02-22T09:01:44.558Z,6.26
2023-02-22T09:02:44.538Z,6.26
2023-02-22T09:03:44.503Z,6.27
2023-02-22T09:04:44.486Z,6.27
2023-02-22T09:05:44.582Z,6.26
2023-02-22T09:06:44.457Z,6.26
2023-02-22T09:07:44.423Z,6.24
2023-02-22T09:08:44.420Z,6.20
2023-02-22T09:09:44.431Z,6.22
2023-02-22T09:10:44.424Z,6.26
2023-02-22T09:11:44.603Z,6.27
2023-02-22T09:12:44.423Z,6.30
2023-02-22T09:13:44.348Z,6.31
2023-02-22T09:14:44.377Z,6.35
2023-02-22T09:15:44.368Z,6.41
2023-02-22T09:16:44.391Z,6.46
2023-02-22T09:17:44.312Z,6.49
2023-02-22T09:18:44.732Z,6.51
2023-02-22T09:19:44.352Z,6.49
2023-02-22T09:20:44.279Z,6.52
2023-02-22T09:21:44.279Z,6.57
2023-02-22T09:22:44.251Z,6.56
2023-02-22T09:23:44.268Z,6.62
2023-02-22T09:24:44.248Z,6.63
2023-02-22T09:25:44.289Z,6.63
2023-02-22T09:26:44.263Z,6.64
2023-02-22T09:27:44.321Z,6.63
2023-02-22T09:28:44.210Z,6.63
2023-02-22T09:29:44.187Z,6.67
2023-02-22T09:30:44.211Z,6.69
2023-02-22T09:31:44.266Z,6.75
2023-02-22T09:32:44.437Z,6.72
2023-02-22T09:33:45.865Z,6.74
2023-02-22T09:34:44.132Z,6.70
2023-02-22T09:35:44.133Z,6.69
2023-02-22T09:36:44.205Z,6.72
2023-02-22T09:37:44.129Z,6.72
2023-02-22T09:38:44.136Z,6.75
2023-02-22T09:39:44.142Z,6.74
2023-02-22T09:40:44.109Z,6.75
2023-02-22T09:41:44.088Z,6.70
2023-02-22T09:42:44.103Z,6.75
2023-02-22T09:43:44.068Z,6.77
2023-02-22T09:44:44.053Z,6.74
2023-02-22T09:45:44.177Z,6.74
2023-02-22T09:46:44.044Z,6.75
2023-02-22T09:47:44.037Z,6.78
2023-02-22T09:48:44.014Z,6.82
2023-02-22T09:49:43.981Z,6.85
2023-02-22T09:50:43.996Z,6.93
2023-02-22T09:51:44.013Z,6.99
2023-02-22T09:52:44.014Z,6.99
2023-02-22T09:53:43.961Z,7.05
2023-02-22T09:54:43.973Z,7.07
2023-02-22T09:55:43.957Z,7.10
2023-02-22T09:56:43.975Z,7.11
2023-02-22T09:57:43.921Z,7.14
2023-02-22T09:58:43.943Z,7.23
2023-02-22T09:59:43.882Z,7.31
2023-02-22T10:00:43.944Z,7.38
2023-02-22T10:01:43.851Z,7.43
2023-02-22T10:02:43.915Z,7.45
2023-02-22T10:03:43.928Z,7.53
2023-02-22T10:04:43.853Z,7.53
2023-02-22T10:05:43.905Z,7.57
2023-02-22T10:06:43.859Z,7.58
2023-02-22T10:07:43.868Z,7.56
2023-02-22T10:08:43.826Z,7.58
2023-02-22T10:09:43.807Z,7.60
2023-02-22T10:10:43.764Z,7.67
2023-02-22T10:11:43.761Z,7.70
2023-02-22T10:12:43.756Z,7.75
2023-02-22T10:13:43.767Z,7.80
2023-02-22T10:14:44.156Z,7.79
2023-02-22T10:15:43.749Z,7.82
2023-02-22T10:16:43.734Z,7.85
2023-02-22T10:17:43.705Z,7.85
2023-02-22T10:18:43.695Z,7.87
2023-02-22T10:19:43.724Z,7.88
2023-02-22T10:20:43.676Z,7.91
2023-02-22T10:21:43.666Z,7.91
2023-02-22T10:22:43.678Z,7.93
2023-02-22T10:23:43.681Z,7.95
2023-02-22T10:24:43.675Z,7.98
2023-02-22T10:25:43.666Z,8.06
2023-02-22T10:26:43.659Z,8.09
2023-02-22T10:27:43.612Z,8.10
2023-02-22T10:28:43.608Z,7.98
2023-02-22T10:29:43.585Z,7.98
2023-02-22T10:30:43.643Z,8.00
2023-02-22T10:31:43.595Z,8.05
2023-02-22T10:32:44.187Z,8.09
2023-02-22T10:33:43.540Z,8.12
2023-02-22T10:34:43.612Z,8.12
2023-02-22T10:35:45.945Z,8.15
2023-02-22T10:36:43.550Z,8.18
2023-02-22T10:37:43.558Z,8.08
2023-02-22T10:38:43.515Z,8.12
2023-02-22T10:39:43.522Z,8.09
2023-02-22T10:40:43.499Z,8.13
2023-02-22T10:41:43.465Z,8.20
2023-02-22T10:42:43.493Z,8.30
2023-02-22T10:43:43.441Z,8.42
2023-02-22T10:44:43.433Z,8.49
2023-02-22T10:45:43.440Z,8.55
2023-02-22T10:46:43.436Z,8.64
2023-02-22T10:47:43.377Z,8.70
2023-02-22T10:48:43.446Z,8.74
2023-02-22T10:49:43.368Z,8.76
2023-02-22T10:50:43.358Z,8.81
2023-02-22T10:51:43.369Z,8.87
2023-02-22T10:52:43.349Z,8.91
2023-02-22T10:53:43.316Z,8.95
2023-02-22T10:54:43.324Z,8.95
2023-02-22T10:55:43.323Z,8.91
2023-02-22T10:56:43.319Z,8.88
2023-02-22T10:57:43.277Z,8.88
2023-02-22T10:58:43.273Z,8.89
2023-02-22T10:59:43.254Z,8.92
2023-02-22T11:00:44.232Z,8.97
2023-02-22T11:01:43.347Z,9.02
2023-02-22T11:02:43.231Z,9.03
2023-02-22T11:03:43.234Z,8.97
2023-02-22T11:04:43.253Z,8.99
2023-02-22T11:05:43.204Z,9.02
2023-02-22T11:06:43.228Z,9.06
2023-02-22T11:07:43.221Z,9.03
2023-02-22T11:08:43.173Z,9.02
2023-02-22T11:09:43.140Z,9.08
2023-02-22T11:10:43.216Z,9.11
2023-02-22T11:11:43.196Z,9.16
2023-02-22T11:12:43.174Z,9.19
2023-02-22T11:13:43.129Z,9.21
2023-02-22T11:14:43.142Z,9.29
2023-02-22T11:15:43.156Z,9.31
2023-02-22T11:16:43.185Z,9.32
2023-02-22T11:17:43.100Z,9.41
2023-02-22T11:18:43.098Z,9.46
2023-02-22T11:19:43.069Z,9.48
2023-02-22T11:20:43.049Z,9.54
2023-02-22T11:21:43.038Z,9.62
2023-02-22T11:22:43.067Z,9.66
2023-02-22T11:23:44.801Z,9.73
2023-02-22T11:24:49.090Z,9.77
2023-02-22T11:25:42.999Z,9.79
2023-02-22T11:26:43.007Z,9.84
2023-02-22T11:27:42.979Z,9.89
2023-02-22T11:28:43.006Z,9.89
2023-02-22T11:29:43.002Z,9.94
2023-02-22T11:30:43.061Z,9.97
2023-02-22T11:31:43.010Z,9.97
2023-02-22T11:32:42.928Z,10.04
2023-02-22T11:33:42.941Z,10.10
2023-02-22T11:34:42.920Z,10.19
2023-02-22T11:35:42.912Z,10.26
2023-02-22T11:36:42.881Z,10.37
2023-02-22T11:37:42.880Z,10.46
2023-02-22T11:38:42.889Z,10.54
2023-02-22T11:39:42.908Z,10.59
2023-02-22T11:40:42.860Z,10.64
2023-02-22T11:41:42.847Z,10.72
2023-02-22T11:42:42.822Z,10.79
2023-02-22T11:43:42.804Z,10.87
2023-02-22T11:44:42.856Z,10.90
2023-02-22T11:45:52.842Z,10.94
2023-02-22T11:46:42.867Z,10.97
2023-02-22T11:47:42.811Z,11.02
2023-02-22T11:48:42.785Z,11.04
2023-02-22T11:49:42.766Z,11.00
2023-02-22T11:50:42.744Z,11.00
2023-02-22T11:51:42.727Z,11.02
2023-02-22T11:52:42.740Z,11.10
2023-02-22T11:53:42.700Z,11.08
2023-02-22T11:54:42.722Z,10.97
2023-02-22T11:55:43.623Z,10.93
2023-02-22T11:56:43.044Z,10.94
2023-02-22T11:57:42.673Z,10.97
2023-02-22T11:58:42.715Z,10.96
2023-02-22T11:59:42.646Z,10.92
2023-02-22T12:00:42.624Z,10.87
2023-02-22T12:01:42.621Z,10.92
2023-02-22T12:02:51.819Z,10.99
2023-02-22T12:03:42.727Z,11.08
2023-02-22T12:04:42.718Z,11.14
2023-02-22T12:05:42.668Z,11.22
2023-02-22T12:06:42.567Z,11.33
2023-02-22T12:07:42.547Z,11.41
2023-02-22T12:08:42.560Z,11.50
2023-02-22T12:09:42.579Z,11.57
2023-02-22T12:10:42.561Z,11.63
2023-02-22T12:11:42.540Z,11.65
2023-02-22T12:12:42.525Z,11.70
2023-02-22T12:13:42.528Z,11.75
2023-02-22T12:14:42.539Z,11.81
2023-02-22T12:15:42.511Z,11.86
2023-02-22T12:16:42.468Z,11.91
2023-02-22T12:17:48.162Z,11.97
2023-02-22T12:18:42.475Z,12.00
2023-02-22T12:19:42.459Z,12.02
2023-02-22T12:20:42.474Z,12.02
2023-02-22T12:21:42.413Z,12.06
2023-02-22T12:22:42.478Z,12.13
2023-02-22T12:23:42.410Z,12.13
2023-02-22T12:24:42.395Z,12.15
2023-02-22T12:25:42.388Z,12.15
2023-02-22T12:26:42.385Z,12.18
2023-02-22T12:27:42.393Z,12.20
2023-02-22T12:28:42.387Z,12.20
2023-02-22T12:29:42.367Z,12.22
2023-02-22T12:30:42.527Z,12.27
2023-02-22T12:31:42.400Z,12.29
2023-02-22T12:32:42.397Z,12.36
2023-02-22T12:33:42.326Z,12.39
2023-02-22T12:34:42.310Z,12.43
2023-02-22T12:35:42.283Z,12.45
2023-02-22T12:36:42.288Z,12.47
2023-02-22T12:37:42.279Z,12.46
2023-02-22T12:38:42.249Z,12.53
2023-02-22T12:39:52.815Z,12.58
2023-02-22T12:40:42.237Z,12.57
2023-02-22T12:41:42.241Z,12.61
2023-02-22T12:42:42.217Z,12.67
2023-02-22T12:43:42.242Z,12.68
2023-02-22T12:44:42.189Z,12.68
2023-02-22T12:45:42.213Z,12.68
2023-02-22T12:46:42.376Z,12.72
2023-02-22T12:47:42.157Z,12.76
2023-02-22T12:48:42.152Z,12.76
2023-02-22T12:49:42.169Z,12.82
2023-02-22T12:50:42.168Z,12.82
2023-02-22T12:51:42.136Z,12.86
2023-02-22T12:52:42.111Z,12.87
2023-02-22T12:53:42.107Z,12.87
2023-02-22T12:54:42.104Z,12.94
2023-02-22T12:55:42.118Z,12.95
2023-02-22T12:56:42.078Z,12.97
2023-02-22T12:57:42.087Z,12.97
2023-02-22T12:58:42.063Z,12.95
2023-02-22T12:59:42.075Z,12.97
2023-02-22T13:00:42.026Z,12.98
2023-02-22T13:01:42.101Z,13.00
2023-02-22T13:02:42.006Z,13.03
2023-02-22T13:03:42.042Z,13.03
2023-02-22T13:04:41.973Z,13.08
2023-02-22T13:05:42.007Z,13.08
2023-02-22T13:06:41.964Z,13.05
2023-02-22T13:07:41.999Z,13.04
2023-02-22T13:08:41.978Z,13.05
2023-02-22T13:09:41.941Z,13.09
2023-02-22T13:10:41.941Z,13.11
2023-02-22T13:11:41.940Z,13.15
2023-02-22T13:12:41.887Z,13.18
2023-02-22T13:13:42.015Z,13.20
2023-02-22T13:14:41.914Z,13.25
2023-02-22T13:15:41.900Z,13.28